Time;durP1;ratioP1;P1;durP2;ratioP2;P2;SDS_P1;SDS_P2;PMS_P1;PMS_P2;Temp;Humidity;BMP_temperature;BMP_pressure;BME280_temperature;BME280_humidity;BME280_pressure;Samples;Min_cycle;Max_cycle;Signal;HPM_P1;HPM_P2
2023/06/19 00:00:15;;;;;;;1.92;1.83;;;;;;;25.04;58.07;98872.84;2070376;28;20584;-55
2023/06/19 00:01:16;;;;;;;2.63;2.40;;;;;;;25.04;57.91;98872.84;2073446;28;20149;-51
2023/06/19 00:02:19;;;;;;;3.25;2.33;;;;;;;25.02;58.04;98878.53;2072465;28;20622;-53
2023/06/19 00:03:20;;;;;;;1.83;1.73;;;;;;;25.03;58.13;98877.47;2072170;28;20500;-49
2023/06/19 00:04:21;;;;;;;1.73;1.63;;;;;;;25.03;58.34;98876.66;2072150;28;20045;-49
2023/06/19 00:05:23;;;;;;;2.03;1.88;;;;;;;25.04;58.42;98878.28;2073320;28;20073;-50
2023/06/19 00:06:25;;;;;;;2.28;2.08;;;;;;;25.02;57.83;98866.84;2074172;28;20089;-55
2023/06/19 00:07:26;;;;;;;2.47;2.28;;;;;;;25.04;58.26;98868.25;2074021;28;20103;-52
2023/06/19 00:08:28;;;;;;;2.10;2.00;;;;;;;25.03;58.14;98872.03;2072561;28;20412;-55
2023/06/19 00:09:28;;;;;;;2.40;2.20;;;;;;;25.02;58.12;98867.69;2070918;28;20042;-49
2023/06/19 00:10:30;;;;;;;2.50;2.30;;;;;;;25.03;58.18;98861.19;2071529;28;20133;-55
2023/06/19 00:11:31;;;;;;;1.98;1.85;;;;;;;25.02;57.81;98867.69;2073100;28;21004;-55
2023/06/19 00:12:33;;;;;;;2.42;2.22;;;;;;;25.03;58.10;98866.63;2072664;28;20129;-56
2023/06/19 00:13:34;;;;;;;2.47;2.28;;;;;;;25.04;58.35;98862.00;2072883;28;20098;-52
2023/06/19 00:14:36;;;;;;;2.00;1.80;;;;;;;25.02;58.34;98864.97;2073177;28;20091;-52
2023/06/19 00:15:37;;;;;;;2.33;2.10;;;;;;;25.03;58.02;98865.78;2073166;28;20045;-49
2023/06/19 00:16:40;;;;;;;2.38;2.17;;;;;;;25.03;58.23;98869.31;2069630;28;20088;-51
2023/06/19 00:17:42;;;;;;;2.38;2.17;;;;;;;25.02;57.90;98862.25;2072889;28;20046;-51
2023/06/19 00:18:44;;;;;;;2.13;1.98;;;;;;;25.01;57.91;98859.78;2072195;28;20050;-52
2023/06/19 00:19:44;;;;;;;2.47;2.28;;;;;;;25.03;58.08;98865.78;2072699;28;20132;-50
2023/06/19 00:20:47;;;;;;;2.83;2.22;;;;;;;25.00;58.35;98864.38;2074166;28;20462;-51
2023/06/19 00:21:48;;;;;;;2.95;2.35;;;;;;;25.01;57.82;98857.06;2072452;28;20057;-51
2023/06/19 00:22:51;;;;;;;2.50;2.30;;;;;;;25.02;58.24;98861.41;2070448;28;20053;-53
2023/06/19 00:23:52;;;;;;;2.20;2.00;;;;;;;25.03;58.29;98860.38;2072390;28;20050;-51
2023/06/19 00:24:54;;;;;;;2.72;1.83;;;;;;;25.02;58.15;98856.84;2072369;28;20059;-52
2023/06/19 00:25:55;;;;;;;2.08;1.95;;;;;;;25.03;57.99;98868.50;2073049;28;20046;-50
2023/06/19 00:27:02;;;;;;;2.13;1.90;;;;;;;25.02;57.91;98867.69;2073714;28;20772;-50
2023/06/19 00:28:03;;;;;;;2.20;2.08;;;;;;;25.00;57.85;98864.38;2074341;28;20095;-53
2023/06/19 00:29:05;;;;;;;2.33;2.05;;;;;;;25.03;58.13;98863.91;2072780;28;20088;-54
2023/06/19 00:30:06;;;;;;;2.42;2.22;;;;;;;25.02;57.99;98862.25;2071820;28;20053;-51
2023/06/19 00:31:08;;;;;;;2.10;2.00;;;;;;;25.05;58.04;98869.09;2071726;28;20065;-53
2023/06/19 00:32:09;;;;;;;2.40;2.20;;;;;;;25.02;58.20;98862.25;2072235;28;20058;-51
2023/06/19 00:33:12;;;;;;;2.65;2.15;;;;;;;25.02;57.88;98869.56;2069997;28;20053;-51
2023/06/19 00:34:13;;;;;;;2.55;2.35;;;;;;;25.02;57.89;98867.69;2071791;28;20057;-53
2023/06/19 00:35:16;;;;;;;2.08;1.88;;;;;;;25.03;58.06;98868.50;2074710;28;20056;-52
2023/06/19 00:36:19;;;;;;;1.80;1.70;;;;;;;25.03;57.89;98866.63;2072833;28;20187;-49
2023/06/19 00:37:21;;;;;;;2.47;2.28;;;;;;;25.02;58.25;98872.25;2073128;28;20048;-51
2023/06/19 00:38:23;;;;;;;2.40;2.20;;;;;;;25.01;57.93;98871.44;2073269;28;20482;-50
2023/06/19 00:39:26;;;;;;;2.08;1.90;;;;;;;24.99;58.52;98870.88;2072684;28;20095;-53
2023/06/19 00:40:28;;;;;;;2.08;1.92;;;;;;;25.01;58.20;98865.19;2071800;28;20049;-51
2023/06/19 00:41:31;;;;;;;2.30;2.10;;;;;;;25.03;58.02;98874.75;2074525;28;20054;-54
2023/06/19 00:42:32;;;;;;;1.98;1.88;;;;;;;25.02;58.04;98881.25;2073257;28;20045;-49
2023/06/19 00:43:34;;;;;;;1.95;1.85;;;;;;;25.03;57.90;98882.91;2072512;28;20597;-50
2023/06/19 00:44:35;;;;;;;1.95;1.85;;;;;;;25.01;58.35;98878.78;2069966;28;20033;-50
2023/06/19 00:45:37;;;;;;;2.20;2.00;;;;;;;25.01;58.09;98881.47;2072022;28;20046;-55
2023/06/19 00:46:40;;;;;;;2.95;2.65;;;;;;;25.01;58.07;98881.47;2071408;28;20141;-52
2023/06/19 00:47:42;;;;;;;2.30;2.10;;;;;;;25.00;58.34;98879.84;2072510;28;20680;-48
2023/06/19 00:48:45;;;;;;;1.95;1.85;;;;;;;25.01;57.96;98881.47;2071385;28;20050;-52
2023/06/19 00:49:46;;;;;;;2.67;2.47;;;;;;;25.03;57.96;98882.06;2072671;28;20710;-51
2023/06/19 00:50:48;;;;;;;2.65;2.28;;;;;;;25.00;58.15;98880.66;2072963;28;20049;-53
2023/06/19 00:51:52;;;;;;;2.65;1.98;;;;;;;25.01;58.09;98876.88;2074104;28;20231;-50
2023/06/19 00:52:53;;;;;;;2.22;1.98;;;;;;;25.01;57.84;98881.47;2072884;28;20046;-52
2023/06/19 00:53:55;;;;;;;2.17;1.98;;;;;;;25.03;57.95;98882.91;2073102;28;20059;-51
2023/06/19 00:54:56;;;;;;;2.13;1.92;;;;;;;25.02;58.13;98878.53;2073170;28;20142;-54
2023/06/19 00:55:58;;;;;;;2.60;2.33;;;;;;;25.02;57.75;98877.69;2074567;28;20053;-52
2023/06/19 00:57:00;;;;;;;2.42;2.22;;;;;;;24.99;58.35;98876.31;2075195;28;20420;-54
2023/06/19 00:58:02;;;;;;;2.25;2.05;;;;;;;24.99;58.00;98881.75;2073681;28;20052;-53
2023/06/19 00:59:07;;;;;;;2.72;2.42;;;;;;;25.00;58.32;98880.66;2072826;28;20110;-51
2023/06/19 01:00:12;;;;;;;2.80;2.60;;;;;;;24.99;58.18;98881.75;2072850;28;20049;-51
2023/06/19 01:01:13;;;;;;;2.45;2.25;;;;;;;24.99;58.10;98879.03;2073949;28;20053;-52
2023/06/19 01:02:14;;;;;;;2.38;1.77;;;;;;;25.02;57.78;98883.13;2070285;28;20524;-51
2023/06/19 01:03:16;;;;;;;2.25;2.05;;;;;;;24.99;58.18;98881.75;2071249;28;20054;-53
2023/06/19 01:04:19;;;;;;;1.90;1.80;;;;;;;25.02;58.20;98883.97;2072001;28;20049;-51
2023/06/19 01:05:20;;;;;;;2.95;2.17;;;;;;;25.02;57.82;98888.53;2071418;28;20065;-52
2023/06/19 01:06:25;;;;;;;2.03;1.80;;;;;;;25.02;58.11;98883.97;2072901;28;20424;-52
2023/06/19 01:07:33;;;;;;;2.50;2.22;;;;;;;25.00;58.03;98888.00;2071206;28;20057;-51
2023/06/19 01:08:59;;;;;;;2.50;2.30;;;;;;;24.97;58.03;98886.56;2073244;28;20057;-50
2023/06/19 01:10:05;;;;;;;2.20;2.00;;;;;;;24.97;58.03;98883.84;2072021;28;20037;-54
2023/06/19 01:11:08;;;;;;;1.70;1.60;;;;;;;24.96;58.31;98885.75;2071399;28;21103;-53
2023/06/19 01:12:15;;;;;;;2.95;2.70;;;;;;;24.98;57.89;98882.78;2071938;28;20140;-53
2023/06/19 01:13:23;;;;;;;2.38;2.17;;;;;;;24.97;58.47;98883.84;2071489;28;20501;-53
2023/06/19 01:16:24;;;;;;;2.28;2.08;;;;;;;24.91;58.58;98882.09;2038653;28;20074;-49
2023/06/19 01:17:26;;;;;;;2.22;2.00;;;;;;;24.93;58.33;98879.97;2045026;28;20046;-48
2023/06/19 01:18:28;;;;;;;2.40;2.20;;;;;;;24.95;58.30;98885.97;2064992;28;20316;-51
2023/06/19 01:19:31;;;;;;;2.40;2.20;;;;;;;24.97;58.34;98883.84;2072523;28;20046;-50
2023/06/19 01:20:33;;;;;;;3.28;2.58;;;;;;;24.96;58.25;98880.31;2070254;28;20103;-50
2023/06/19 01:21:35;;;;;;;3.22;2.28;;;;;;;24.98;58.40;98871.94;2072408;28;20053;-49
2023/06/19 01:22:38;;;;;;;2.97;2.20;;;;;;;24.96;57.94;98879.47;2073163;28;20053;-58
2023/06/19 01:23:39;;;;;;;2.47;2.25;;;;;;;24.96;58.32;98879.47;2073442;28;20049;-51
2023/06/19 01:24:41;;;;;;;2.88;2.42;;;;;;;24.96;58.35;98876.75;2072640;28;20057;-51
2023/06/19 01:25:42;;;;;;;2.40;2.20;;;;;;;24.98;57.96;98874.66;2074992;28;20101;-51
2023/06/19 01:26:45;;;;;;;2.08;1.98;;;;;;;24.95;58.32;98878.66;2070934;28;20100;-48
2023/06/19 01:27:47;;;;;;;2.45;2.25;;;;;;;24.97;58.35;98873.00;2074583;28;20049;-48
2023/06/19 01:28:48;;;;;;;2.80;1.80;;;;;;;24.96;58.11;98868.63;2072980;28;20503;-51
2023/06/19 01:29:50;;;;;;;2.30;2.10;;;;;;;24.95;58.53;98875.13;2072642;28;20322;-49
2023/06/19 01:30:52;;;;;;;2.60;2.40;;;;;;;24.95;58.19;98873.22;2070899;28;20045;-51
2023/06/19 01:31:59;;;;;;;3.38;2.20;;;;;;;24.95;58.06;98870.53;2072702;28;20041;-50
2023/06/19 01:33:08;;;;;;;3.65;2.80;;;;;;;24.95;58.46;98869.69;2072127;28;20500;-48
2023/06/19 01:34:12;;;;;;;2.50;2.30;;;;;;;24.96;58.32;98874.91;2072583;28;20563;-51
2023/06/19 01:35:16;;;;;;;2.40;2.20;;;;;;;24.95;58.32;98867.00;2071903;28;20050;-50
2023/06/19 01:36:18;;;;;;;2.75;2.45;;;;;;;24.96;58.00;98871.34;2073577;28;20132;-49
2023/06/19 01:37:21;;;;;;;2.40;2.20;;;;;;;24.96;58.03;98871.34;2071924;28;20048;-49
2023/06/19 01:38:26;;;;;;;2.33;2.13;;;;;;;24.96;58.13;98866.75;2072867;28;20084;-51
2023/06/19 01:39:28;;;;;;;2.58;2.38;;;;;;;24.95;58.47;98865.09;2072672;28;20669;-50
2023/06/19 01:40:31;;;;;;;1.98;1.88;;;;;;;24.95;58.18;98861.56;2070767;28;20103;-51
2023/06/19 01:41:34;;;;;;;3.45;2.20;;;;;;;24.96;58.22;98863.19;2073825;28;20049;-51
2023/06/19 01:42:37;;;;;;;2.30;2.08;;;;;;;24.96;58.36;98863.19;2076061;28;20142;-49
2023/06/19 01:43:39;;;;;;;2.38;2.17;;;;;;;24.96;58.19;98863.19;2072538;28;20045;-52
2023/06/19 01:44:40;;;;;;;2.50;2.28;;;;;;;24.95;58.09;98862.38;2071374;28;20140;-50
2023/06/19 01:45:42;;;;;;;2.35;2.10;;;;;;;24.96;57.98;98865.91;2072049;28;20060;-49
2023/06/19 01:46:48;;;;;;;1.95;1.85;;;;;;;24.94;58.17;98860.75;2072519;28;20132;-52
2023/06/19 01:47:49;;;;;;;1.95;1.85;;;;;;;24.95;57.82;98864.28;2072399;28;20123;-48
2023/06/19 01:48:51;;;;;;;1.83;1.73;;;;;;;24.95;58.26;98865.09;2070395;28;20363;-51
2023/06/19 01:49:53;;;;;;;2.38;1.83;;;;;;;24.95;57.98;98864.28;2070486;28;20050;-50
2023/06/19 01:50:54;;;;;;;2.40;2.20;;;;;;;24.95;58.32;98862.38;2070426;28;20057;-49
2023/06/19 01:51:57;;;;;;;2.13;1.98;;;;;;;24.96;58.27;98863.19;2072914;28;20068;-49
2023/06/19 01:52:58;;;;;;;2.00;1.90;;;;;;;24.96;57.96;98863.19;2072891;28;20045;-49
2023/06/19 01:54:01;;;;;;;2.63;2.42;;;;;;;24.95;58.32;98867.81;2070635;28;20702;-51
2023/06/19 01:55:02;;;;;;;2.22;2.03;;;;;;;24.95;58.41;98872.41;2070681;28;20081;-49
2023/06/19 01:56:04;;;;;;;1.80;1.70;;;;;;;24.95;57.90;98864.28;2069210;28;20749;-48
2023/06/19 01:57:06;;;;;;;2.30;2.08;;;;;;;24.96;57.90;98868.63;2072111;28;20061;-50
2023/06/19 01:58:08;;;;;;;2.42;2.22;;;;;;;24.95;58.03;98867.81;2071079;28;20053;-49
2023/06/19 01:59:08;;;;;;;2.50;2.28;;;;;;;24.95;58.48;98872.41;2073226;28;20422;-50
2023/06/19 02:00:11;;;;;;;2.30;2.10;;;;;;;24.95;58.02;98883.25;2070997;28;20046;-50
2023/06/19 02:01:11;;;;;;;2.17;2.05;;;;;;;24.94;58.42;98874.31;2071021;28;20053;-49
2023/06/19 02:02:13;;;;;;;2.45;2.25;;;;;;;24.94;58.17;98874.31;2070236;28;20151;-50
2023/06/19 02:03:14;;;;;;;2.55;2.13;;;;;;;24.93;58.47;98875.38;2070375;28;20144;-48
2023/06/19 02:04:16;;;;;;;2.78;2.38;;;;;;;24.95;57.98;98875.13;2073514;28;20042;-49
2023/06/19 02:05:16;;;;;;;2.67;2.42;;;;;;;24.96;58.37;98879.47;2071996;28;20047;-49
2023/06/19 02:06:18;;;;;;;2.33;2.13;;;;;;;24.95;58.44;98872.41;2070660;28;20460;-50
2023/06/19 02:07:19;;;;;;;2.22;2.03;;;;;;;24.95;58.35;98869.69;2071566;28;20072;-51
2023/06/19 02:08:21;;;;;;;2.38;2.17;;;;;;;24.95;58.48;98869.69;2068502;28;20319;-48
2023/06/19 02:09:23;;;;;;;2.45;2.25;;;;;;;24.94;58.63;98870.78;2072669;28;20045;-48
2023/06/19 02:10:25;;;;;;;2.20;2.00;;;;;;;24.94;58.13;98870.78;2073916;28;20054;-48
2023/06/19 02:11:25;;;;;;;2.33;2.15;;;;;;;24.93;57.92;98874.53;2072685;28;20049;-49
2023/06/19 02:12:27;;;;;;;2.15;1.95;;;;;;;24.94;58.03;98871.59;2070874;28;20046;-50
2023/06/19 02:13:28;;;;;;;2.30;2.10;;;;;;;24.96;58.43;98874.91;2075246;28;20132;-50
2023/06/19 02:14:29;;;;;;;2.50;2.30;;;;;;;24.95;58.54;98875.13;2075493;28;20715;-50
2023/06/19 02:15:30;;;;;;;2.38;2.17;;;;;;;24.95;58.53;98875.13;2074244;28;20057;-50
2023/06/19 02:16:32;;;;;;;2.53;2.33;;;;;;;24.92;58.13;98871.00;2073680;28;20414;-51
2023/06/19 02:17:33;;;;;;;2.50;2.08;;;;;;;24.94;58.41;98877.03;2072061;28;20083;-49
2023/06/19 02:18:34;;;;;;;2.25;2.10;;;;;;;24.95;58.09;98872.41;2074666;28;20312;-51
2023/06/19 02:19:35;;;;;;;2.78;2.30;;;;;;;24.94;57.96;98877.03;2075248;28;20095;-48
2023/06/19 02:20:37;;;;;;;1.92;1.83;;;;;;;24.95;58.30;98875.13;2073175;28;20451;-47
2023/06/19 02:21:38;;;;;;;2.60;2.15;;;;;;;24.94;58.07;98873.50;2073735;28;20053;-51
2023/06/19 02:22:40;;;;;;;2.45;2.22;;;;;;;24.94;58.00;98868.06;2070667;28;20053;-51
2023/06/19 02:23:41;;;;;;;2.63;2.42;;;;;;;24.93;58.23;98863.69;2075423;28;20136;-51
2023/06/19 02:24:44;;;;;;;2.35;2.15;;;;;;;24.92;58.09;98871.00;2073818;28;20049;-50
2023/06/19 02:25:45;;;;;;;3.70;2.17;;;;;;;24.92;58.33;98868.28;2073826;28;20049;-51
2023/06/19 02:26:47;;;;;;;2.63;2.22;;;;;;;24.94;58.46;98878.91;2073877;28;20106;-49
2023/06/19 02:27:47;;;;;;;2.03;1.92;;;;;;;24.92;58.45;98879.13;2073842;28;20054;-49
2023/06/19 02:28:49;;;;;;;2.10;1.98;;;;;;;24.94;58.20;98878.91;2074697;28;20565;-50
2023/06/19 02:29:50;;;;;;;2.17;1.98;;;;;;;24.92;57.91;98872.91;2071646;28;20103;-49
2023/06/19 02:30:52;;;;;;;2.50;2.30;;;;;;;24.92;58.42;98884.56;2071251;28;20071;-48
2023/06/19 02:31:53;;;;;;;3.25;1.77;;;;;;;24.93;58.16;98888.09;2073351;28;20524;-48
2023/06/19 02:32:54;;;;;;;2.55;2.35;;;;;;;24.92;58.31;98883.75;2073347;28;20284;-50
2023/06/19 02:33:55;;;;;;;2.67;2.47;;;;;;;24.93;58.35;98891.66;2075510;28;20049;-49
2023/06/19 02:34:57;;;;;;;2.20;2.00;;;;;;;24.92;58.29;98879.13;2072829;28;20054;-49
2023/06/19 02:35:58;;;;;;;2.70;2.25;;;;;;;24.92;57.97;98878.31;2074323;28;20143;-50
2023/06/19 02:36:59;;;;;;;2.58;2.38;;;;;;;24.91;58.22;98884.81;2072167;28;20056;-52
2023/06/19 02:38:01;;;;;;;2.58;2.38;;;;;;;24.92;58.53;98886.47;2072973;28;20061;-50
2023/06/19 02:39:04;;;;;;;2.70;2.40;;;;;;;24.92;58.09;98881.03;2072836;28;20053;-51
2023/06/19 02:40:10;;;;;;;2.38;2.17;;;;;;;24.93;58.34;98891.66;2072897;28;20084;-49
2023/06/19 02:41:10;;;;;;;2.50;2.30;;;;;;;24.92;58.41;98889.16;2073402;28;20049;-51
2023/06/19 02:42:12;;;;;;;2.28;2.08;;;;;;;24.92;58.23;98889.16;2072361;28;20564;-49
2023/06/19 02:43:13;;;;;;;2.17;2.03;;;;;;;24.94;57.98;98892.47;2072539;28;20195;-48
2023/06/19 02:44:15;;;;;;;2.33;2.13;;;;;;;24.93;57.85;98893.53;2071462;28;20053;-49
2023/06/19 02:45:16;;;;;;;2.80;2.60;;;;;;;24.92;58.22;98887.28;2073308;28;20062;-50
2023/06/19 02:46:18;;;;;;;2.60;2.40;;;;;;;24.92;57.99;98890.00;2075749;28;20054;-49
2023/06/19 02:47:19;;;;;;;2.50;2.08;;;;;;;24.92;58.36;98894.59;2071747;28;20197;-49
2023/06/19 02:48:22;;;;;;;2.47;2.30;;;;;;;24.92;58.36;98895.41;2073992;28;20080;-52
2023/06/19 02:49:23;;;;;;;2.72;2.00;;;;;;;24.92;57.89;98898.13;2072701;28;20050;-49
2023/06/19 02:50:25;;;;;;;2.45;2.25;;;;;;;24.92;58.37;98895.41;2075037;28;20140;-51
2023/06/19 02:51:25;;;;;;;2.28;2.08;;;;;;;24.92;58.31;98900.03;2073716;28;20124;-54
2023/06/19 02:52:28;;;;;;;2.60;2.40;;;;;;;24.92;57.93;98891.88;2073066;28;20448;-50
2023/06/19 02:53:29;;;;;;;2.30;2.10;;;;;;;24.91;57.76;98896.50;2072157;28;20049;-50
2023/06/19 02:54:30;;;;;;;2.45;2.25;;;;;;;24.93;58.30;98907.09;2074611;28;20076;-53
2023/06/19 02:55:32;;;;;;;2.05;1.92;;;;;;;24.91;57.84;98899.22;2073577;28;20106;-50
2023/06/19 02:56:34;;;;;;;2.60;2.40;;;;;;;24.91;58.25;98893.78;2074688;28;20049;-48
2023/06/19 02:57:35;;;;;;;1.95;1.85;;;;;;;24.92;57.77;98897.31;2072559;28;20131;-49
2023/06/19 02:58:38;;;;;;;2.38;2.17;;;;;;;24.90;58.28;98894.81;2072497;28;20049;-55
2023/06/19 02:59:39;;;;;;;2.03;1.83;;;;;;;24.90;58.14;98894.00;2073565;28;20065;-50
2023/06/19 03:00:41;;;;;;;1.60;1.50;;;;;;;24.92;57.73;98895.41;2072741;28;20050;-49
2023/06/19 03:01:42;;;;;;;3.60;2.30;;;;;;;24.90;57.91;98896.72;2075208;28;20155;-49
2023/06/19 03:02:44;;;;;;;2.53;2.30;;;;;;;24.91;58.25;98896.50;2075662;28;20050;-50
2023/06/19 03:03:46;;;;;;;2.15;1.95;;;;;;;24.92;57.69;98898.13;2075062;28;20053;-49
2023/06/19 03:04:48;;;;;;;2.47;2.22;;;;;;;24.92;58.13;98892.69;2074077;28;20053;-49
2023/06/19 03:05:49;;;;;;;2.35;2.10;;;;;;;24.93;57.76;98901.66;2072619;28;20046;-49
2023/06/19 03:06:51;;;;;;;4.07;2.05;;;;;;;24.92;58.26;98900.03;2073036;28;20538;-50
2023/06/19 03:07:52;;;;;;;2.30;2.10;;;;;;;24.90;58.21;98902.16;2073113;28;20076;-49
2023/06/19 03:08:53;;;;;;;2.45;2.25;;;;;;;24.91;58.15;98899.22;2071532;28;20057;-51
2023/06/19 03:09:54;;;;;;;2.53;2.33;;;;;;;24.91;57.87;98901.09;2073336;28;20069;-51
2023/06/19 03:10:58;;;;;;;2.65;2.45;;;;;;;24.92;57.81;98894.59;2074785;28;21182;-53
2023/06/19 03:11:58;;;;;;;2.88;1.98;;;;;;;24.90;58.24;98896.72;2076318;28;20084;-48
2023/06/19 03:13:00;;;;;;;2.30;1.83;;;;;;;24.90;57.77;98900.25;2071775;28;20073;-48
2023/06/19 03:14:07;;;;;;;2.95;2.65;;;;;;;24.90;58.26;98894.00;2072874;28;20062;-47
2023/06/19 03:15:09;;;;;;;3.38;2.67;;;;;;;24.89;57.80;98898.63;2072252;28;20050;-50
2023/06/19 03:16:10;;;;;;;2.30;2.15;;;;;;;24.89;58.34;98901.31;2072609;28;20054;-48
2023/06/19 03:17:13;;;;;;;2.13;2.03;;;;;;;24.91;58.25;98903.81;2072969;28;20118;-49
2023/06/19 03:18:13;;;;;;;2.60;2.40;;;;;;;24.91;57.95;98903.81;2074908;28;20124;-48
2023/06/19 03:19:15;;;;;;;2.55;2.25;;;;;;;24.89;57.84;98901.31;2073758;28;20503;-50
2023/06/19 03:20:16;;;;;;;2.53;2.33;;;;;;;24.90;58.27;98904.84;2073896;28;20449;-49
2023/06/19 03:21:19;;;;;;;2.72;2.08;;;;;;;24.89;57.72;98906.75;2074074;28;20150;-49
2023/06/19 03:22:20;;;;;;;2.53;2.33;;;;;;;24.89;57.76;98900.50;2074477;28;20045;-51
2023/06/19 03:23:22;;;;;;;2.17;1.98;;;;;;;24.89;57.65;98903.22;2073958;28;20192;-51
2023/06/19 03:24:23;;;;;;;3.33;2.30;;;;;;;24.90;57.85;98907.56;2075741;28;20053;-49
2023/06/19 03:25:25;;;;;;;2.10;1.90;;;;;;;24.89;58.18;98900.50;2072623;28;20046;-49
2023/06/19 03:26:27;;;;;;;2.53;2.33;;;;;;;24.89;57.70;98900.50;2074126;28;20041;-49
2023/06/19 03:27:30;;;;;;;1.98;1.88;;;;;;;24.90;58.16;98900.25;2073211;28;20042;-50
2023/06/19 03:28:30;;;;;;;1.98;1.88;;;;;;;24.90;57.76;98902.16;2074177;28;20053;-47
2023/06/19 03:29:32;;;;;;;3.83;2.33;;;;;;;24.89;57.77;98900.50;2072949;28;20042;-53
2023/06/19 03:30:33;;;;;;;2.92;2.40;;;;;;;24.88;57.82;98901.59;2074835;28;20103;-50
2023/06/19 03:31:35;;;;;;;2.20;2.10;;;;;;;24.90;57.90;98904.84;2071374;28;20054;-49
2023/06/19 03:32:35;;;;;;;1.83;1.70;;;;;;;24.88;58.23;98899.69;2071998;28;20053;-59
2023/06/19 03:33:37;;;;;;;2.55;2.35;;;;;;;24.87;57.80;98900.72;2074054;28;20459;-52
2023/06/19 03:34:38;;;;;;;3.28;2.97;;;;;;;24.88;58.15;98896.97;2071038;28;20115;-51
2023/06/19 03:35:40;;;;;;;2.28;2.15;;;;;;;24.89;58.03;98892.38;2073790;28;20053;-51
2023/06/19 03:36:42;;;;;;;2.10;1.90;;;;;;;24.89;57.83;98890.47;2065969;28;20077;-51
2023/06/19 03:37:43;;;;;;;2.50;2.20;;;;;;;24.89;58.13;98893.19;2074654;28;20469;-51
2023/06/19 03:38:44;;;;;;;2.83;2.50;;;;;;;24.88;57.87;98890.72;2072542;28;20056;-50
2023/06/19 03:39:45;;;;;;;2.58;2.38;;;;;;;24.87;57.86;98894.50;2074486;28;20045;-50
2023/06/19 03:40:47;;;;;;;3.85;1.98;;;;;;;24.87;58.25;98895.31;2071778;28;20045;-50
2023/06/19 03:41:49;;;;;;;2.30;2.10;;;;;;;24.86;57.95;98890.94;2074469;28;20080;-47
2023/06/19 03:42:51;;;;;;;2.55;2.33;;;;;;;24.85;58.02;98897.44;2073029;28;20053;-49
2023/06/19 03:43:51;;;;;;;2.17;1.98;;;;;;;24.87;58.35;98897.19;2073195;28;20155;-48
2023/06/19 03:44:53;;;;;;;2.40;2.20;;;;;;;24.85;58.45;98893.88;2073267;28;20085;-51
2023/06/19 03:45:54;;;;;;;2.63;2.42;;;;;;;24.86;58.24;98895.56;2074557;28;20049;-48
2023/06/19 03:46:56;;;;;;;2.85;2.50;;;;;;;24.85;57.98;98893.88;2074680;28;20470;-52
2023/06/19 03:47:56;;;;;;;2.60;2.40;;;;;;;24.87;58.17;98898.03;2072456;28;20081;-54
2023/06/19 03:48:58;;;;;;;2.25;2.08;;;;;;;24.88;58.17;98893.44;2073733;28;20045;-52
2023/06/19 03:49:59;;;;;;;2.47;2.28;;;;;;;24.87;57.89;98892.59;2073722;28;20475;-53
2023/06/19 03:51:01;;;;;;;2.30;2.10;;;;;;;24.87;57.85;98895.31;2075056;28;20099;-47
2023/06/19 03:52:02;;;;;;;2.22;1.63;;;;;;;24.88;57.88;98890.72;2074167;28;20045;-49
2023/06/19 03:53:04;;;;;;;2.72;2.10;;;;;;;24.87;58.11;98898.03;2073019;28;20145;-51
2023/06/19 03:54:05;;;;;;;2.20;2.00;;;;;;;24.86;57.65;98899.09;2073982;28;20401;-53
2023/06/19 03:55:07;;;;;;;2.35;2.15;;;;;;;24.88;58.15;98898.88;2075942;28;20104;-48
2023/06/19 03:56:08;;;;;;;3.30;1.92;;;;;;;24.86;58.13;98898.28;2074987;28;20121;-51
2023/06/19 03:57:11;;;;;;;2.17;2.00;;;;;;;24.87;57.81;98899.91;2075111;28;20050;-54
2023/06/19 03:58:12;;;;;;;2.33;2.13;;;;;;;24.86;57.86;98896.38;2076363;28;20095;-48
2023/06/19 03:59:14;;;;;;;2.13;2.00;;;;;;;24.86;57.87;98895.56;2071741;28;20141;-49
2023/06/19 04:00:18;;;;;;;2.70;2.50;;;;;;;24.84;57.93;98895.78;2068686;28;20053;-49
2023/06/19 04:01:19;;;;;;;2.53;2.33;;;;;;;24.85;57.84;98896.59;2075290;28;20048;-50
2023/06/19 04:02:20;;;;;;;3.10;2.63;;;;;;;24.85;58.31;98892.03;2073795;28;20389;-48
2023/06/19 04:03:22;;;;;;;1.98;1.85;;;;;;;24.84;58.29;98892.25;2071986;28;20045;-51
2023/06/19 04:04:23;;;;;;;2.33;2.13;;;;;;;24.83;58.14;98891.44;2072907;28;20103;-52
2023/06/19 04:05:25;;;;;;;2.50;2.00;;;;;;;24.85;57.97;98891.19;2069323;28;20042;-50
2023/06/19 04:06:26;;;;;;;2.60;2.40;;;;;;;24.84;57.91;98893.06;2074344;28;20057;-49
2023/06/19 04:07:28;;;;;;;2.60;2.38;;;;;;;24.86;57.90;98890.94;2068692;28;20125;-54
2023/06/19 04:08:29;;;;;;;2.65;2.22;;;;;;;24.85;57.84;98888.47;2070328;28;20365;-55
2023/06/19 04:09:30;;;;;;;2.47;2.30;;;;;;;24.85;58.17;98894.75;2073198;28;20061;-50
2023/06/19 04:10:31;;;;;;;2.88;2.63;;;;;;;24.83;58.08;98890.63;2073504;28;20080;-56
2023/06/19 04:11:33;;;;;;;2.60;2.40;;;;;;;24.85;57.82;98892.03;2071872;28;20396;-53
2023/06/19 04:12:35;;;;;;;2.45;2.17;;;;;;;24.85;57.67;98889.31;2066166;28;20117;-51
2023/06/19 04:13:37;;;;;;;3.22;2.47;;;;;;;24.85;58.10;98892.03;2072586;28;20046;-55
2023/06/19 04:14:38;;;;;;;2.30;2.10;;;;;;;24.85;58.13;98892.03;2075567;28;20053;-50
2023/06/19 04:15:39;;;;;;;1.92;1.83;;;;;;;24.85;58.10;98885.75;2073759;28;20467;-52
2023/06/19 04:16:40;;;;;;;2.30;2.10;;;;;;;24.84;58.21;98886.81;2073535;28;20068;-51
2023/06/19 04:17:42;;;;;;;2.80;2.47;;;;;;;24.83;58.15;98885.19;2071738;28;20422;-56
2023/06/19 04:18:43;;;;;;;2.28;2.08;;;;;;;24.84;57.60;98881.41;2073926;28;20057;-50
2023/06/19 04:19:45;;;;;;;2.25;2.05;;;;;;;24.84;57.68;98884.94;2074807;28;20782;-53
2023/06/19 04:20:45;;;;;;;2.63;2.40;;;;;;;24.84;58.00;98878.69;2074242;28;20080;-50
2023/06/19 04:21:47;;;;;;;2.10;1.90;;;;;;;24.83;57.68;98880.59;2073189;28;20049;-51
2023/06/19 04:22:48;;;;;;;2.67;2.17;;;;;;;24.85;57.64;98880.31;2074954;28;20077;-50
2023/06/19 04:23:50;;;;;;;2.67;2.47;;;;;;;24.83;57.74;98883.28;2073543;28;20058;-53
2023/06/19 04:24:50;;;;;;;2.80;2.47;;;;;;;24.84;57.83;98881.41;2073895;28;20073;-52
2023/06/19 04:25:52;;;;;;;2.53;2.33;;;;;;;24.84;57.66;98886.81;2073032;28;20060;-52
2023/06/19 04:26:53;;;;;;;2.50;2.30;;;;;;;24.84;57.71;98881.41;2073264;28;20591;-52
2023/06/19 04:27:56;;;;;;;1.95;1.85;;;;;;;24.84;58.04;98878.69;2071390;28;20054;-50
2023/06/19 04:28:57;;;;;;;1.80;1.70;;;;;;;24.83;57.94;98879.75;2074836;28;20178;-51
2023/06/19 04:29:58;;;;;;;2.47;2.28;;;;;;;24.83;57.62;98880.59;2074828;28;20468;-52
2023/06/19 04:31:00;;;;;;;5.22;2.25;;;;;;;24.84;58.05;98884.13;2073131;28;20522;-51
2023/06/19 04:32:04;;;;;;;2.15;2.05;;;;;;;24.83;57.69;98871.63;2070593;28;20155;-52
2023/06/19 04:33:06;;;;;;;2.33;2.13;;;;;;;24.83;58.06;98868.91;2076793;28;20642;-53
2023/06/19 04:34:08;;;;;;;2.25;2.05;;;;;;;24.83;58.23;98869.72;2072000;28;20056;-53
2023/06/19 04:35:09;;;;;;;2.28;2.08;;;;;;;24.84;57.86;98870.56;2072808;28;20140;-52
2023/06/19 04:36:11;;;;;;;2.40;2.20;;;;;;;24.84;57.46;98876.78;2072319;28;20045;-52
2023/06/19 04:37:12;;;;;;;2.30;2.10;;;;;;;24.83;57.93;98871.63;2071737;28;20474;-51
2023/06/19 04:38:14;;;;;;;2.22;1.67;;;;;;;24.81;58.15;98868.31;2075157;28;20236;-53
2023/06/19 04:39:15;;;;;;;2.15;2.00;;;;;;;24.84;58.06;98881.41;2072181;28;20084;-53
2023/06/19 04:40:17;;;;;;;2.53;2.33;;;;;;;24.83;57.61;98868.91;2072567;28;20084;-55
2023/06/19 04:41:18;;;;;;;2.17;1.98;;;;;;;24.83;58.04;98874.34;2070968;28;20516;-55
2023/06/19 04:42:20;;;;;;;2.17;2.08;;;;;;;24.84;58.07;98884.13;2067352;28;20050;-50
2023/06/19 04:43:24;;;;;;;2.47;2.28;;;;;;;24.84;57.86;98873.25;2071121;28;20049;-54
2023/06/19 04:44:26;;;;;;;2.42;2.22;;;;;;;24.82;57.69;98876.19;2072951;28;20500;-49
2023/06/19 04:45:27;;;;;;;2.40;2.08;;;;;;;24.82;57.78;98876.19;2072879;28;20523;-51
2023/06/19 04:46:28;;;;;;;2.65;2.45;;;;;;;24.83;57.79;98868.91;2073596;28;20045;-48
2023/06/19 04:47:29;;;;;;;2.50;2.30;;;;;;;24.82;58.00;98867.25;2073146;28;20476;-51
2023/06/19 04:48:31;;;;;;;3.05;2.40;;;;;;;24.82;57.93;98878.91;2072569;28;20058;-51
2023/06/19 04:49:32;;;;;;;2.40;2.10;;;;;;;24.83;57.77;98874.34;2073641;28;20049;-54
2023/06/19 04:50:33;;;;;;;1.98;1.88;;;;;;;24.82;57.87;98878.09;2073671;28;20107;-54
2023/06/19 04:51:34;;;;;;;2.38;2.17;;;;;;;24.83;57.69;98880.59;2072906;28;20602;-55
2023/06/19 04:52:37;;;;;;;2.58;2.35;;;;;;;24.83;58.02;98887.91;2072385;28;20046;-51
2023/06/19 04:53:38;;;;;;;2.60;2.40;;;;;;;24.83;57.75;98885.19;2071703;28;20311;-51